Time;durP1;ratioP1;P1;durP2;ratioP2;P2;SDS_P1;SDS_P2;PMS_P1;PMS_P2;Temp;Humidity;BMP_temperature;BMP_pressure;BME280_temperature;BME280_humidity;BME280_pressure;Samples;Min_cycle;Max_cycle;Signal;HPM_P1;HPM_P2
2022/05/18 00:00:50;;;;;;;5.43;4.93;;;15.30;99.90;;;;;;5071953;28;20996;-66
2022/05/18 00:03:21;;;;;;;5.73;4.97;;;15.20;99.90;;;;;;5072941;28;20446;-67
2022/05/18 00:05:48;;;;;;;5.83;5.33;;;15.20;99.90;;;;;;5072880;28;20530;-68
2022/05/18 00:08:15;;;;;;;5.87;5.27;;;15.20;99.90;;;;;;5072496;28;20470;-67
2022/05/18 00:10:46;;;;;;;6.57;5.07;;;15.10;99.90;;;;;;5072193;28;20538;-68
2022/05/18 00:13:15;;;;;;;5.60;5.00;;;14.90;99.90;;;;;;5072635;28;20526;-67
2022/05/18 00:15:44;;;;;;;5.17;4.67;;;14.90;99.90;;;;;;5072640;28;20535;-67
2022/05/18 00:18:11;;;;;;;5.60;5.00;;;14.90;99.90;;;;;;5072532;28;20451;-67
2022/05/18 00:20:38;;;;;;;7.57;5.00;;;14.90;99.90;;;;;;5071846;28;20447;-66
2022/05/18 00:23:06;;;;;;;9.30;6.03;;;14.80;99.90;;;;;;5072048;28;20482;-68
2022/05/18 00:25:37;;;;;;;5.90;5.30;;;14.80;99.90;;;;;;5072274;28;20442;-66
2022/05/18 00:28:05;;;;;;;5.93;5.20;;;14.70;99.90;;;;;;5072200;28;20439;-66
2022/05/18 00:30:34;;;;;;;7.40;5.60;;;14.70;99.90;;;;;;5071810;28;20518;-66
2022/05/18 00:33:04;;;;;;;6.17;5.13;;;14.70;99.90;;;;;;5072064;28;20497;-66
2022/05/18 00:35:32;;;;;;;7.73;5.40;;;14.60;99.90;;;;;;5071851;28;20439;-66
2022/05/18 00:38:00;;;;;;;6.00;5.40;;;14.60;99.90;;;;;;5071703;28;20928;-68
2022/05/18 00:40:27;;;;;;;6.30;5.70;;;14.50;99.90;;;;;;5071522;28;20508;-67
2022/05/18 00:42:54;;;;;;;7.63;5.57;;;14.50;99.90;;;;;;5071927;28;20553;-67
2022/05/18 00:45:22;;;;;;;6.63;5.70;;;14.40;99.90;;;;;;5071713;28;20449;-68
2022/05/18 00:47:50;;;;;;;5.43;4.93;;;14.40;99.90;;;;;;5071657;28;20902;-67
2022/05/18 00:50:22;;;;;;;6.40;5.40;;;14.40;99.90;;;;;;5071465;28;20499;-67
2022/05/18 00:52:59;;;;;;;9.50;6.10;;;14.40;99.90;;;;;;5071864;28;20432;-67
2022/05/18 00:55:29;;;;;;;6.60;5.70;;;14.40;99.90;;;;;;5071733;28;20443;-68
2022/05/18 00:58:03;;;;;;;6.30;5.70;;;14.40;99.90;;;;;;5071447;28;20530;-68
2022/05/18 01:00:31;;;;;;;7.23;5.77;;;14.40;99.90;;;;;;5071056;28;20984;-67
2022/05/18 01:03:05;;;;;;;6.70;6.07;;;14.30;99.90;;;;;;5070870;28;20515;-67
2022/05/18 01:05:38;;;;;;;6.40;5.33;;;14.20;99.90;;;;;;5071908;28;20939;-67
2022/05/18 01:08:05;;;;;;;7.97;6.20;;;14.10;99.90;;;;;;5071638;28;20450;-68
2022/05/18 01:10:33;;;;;;;6.07;5.33;;;14.00;99.90;;;;;;5071469;28;20441;-66
2022/05/18 01:13:02;;;;;;;8.50;6.60;;;13.90;99.90;;;;;;5071446;28;20439;-68
2022/05/18 01:15:30;;;;;;;7.07;6.37;;;13.80;99.90;;;;;;5071307;28;20859;-66
2022/05/18 01:17:59;;;;;;;7.47;6.70;;;13.90;99.90;;;;;;5071383;28;20537;-68
2022/05/18 01:20:32;;;;;;;6.10;5.50;;;14.00;99.90;;;;;;5071104;28;20451;-67
2022/05/18 01:23:13;;;;;;;9.80;7.80;;;14.00;99.90;;;;;;5071486;28;20478;-67
2022/05/18 01:25:53;;;;;;;7.20;6.47;;;14.00;99.90;;;;;;5071293;28;20431;-67
2022/05/18 01:28:24;;;;;;;5.90;5.30;;;14.00;99.90;;;;;;5071476;28;20482;-66
2022/05/18 01:30:51;;;;;;;7.80;5.60;;;14.10;99.90;;;;;;5071048;28;20443;-67
2022/05/18 01:33:21;;;;;;;7.50;5.87;;;14.10;99.90;;;;;;5071166;28;20445;-67
2022/05/18 01:35:49;;;;;;;7.40;6.07;;;14.00;99.90;;;;;;5070956;28;20435;-67
2022/05/18 01:38:17;;;;;;;6.90;6.20;;;13.90;99.90;;;;;;5070635;28;20546;-68
2022/05/18 01:40:56;;;;;;;7.93;7.10;;;13.70;99.90;;;;;;5070726;28;20534;-67
2022/05/18 01:43:29;;;;;;;8.47;7.00;;;13.70;99.90;;;;;;5071007;28;20497;-67
2022/05/18 01:45:59;;;;;;;10.10;6.00;;;13.60;99.90;;;;;;5070925;28;20829;-67
2022/05/18 01:48:31;;;;;;;7.17;6.47;;;13.60;99.90;;;;;;5070511;28;20470;-67
2022/05/18 01:51:00;;;;;;;6.90;6.20;;;13.60;99.90;;;;;;5070164;28;20439;-66
2022/05/18 01:53:27;;;;;;;9.20;6.77;;;13.70;99.90;;;;;;5070492;28;20435;-66
2022/05/18 01:55:55;;;;;;;8.80;7.13;;;13.60;99.90;;;;;;5070503;28;20445;-67
2022/05/18 01:58:24;;;;;;;7.37;6.10;;;13.60;99.90;;;;;;5070262;28;20474;-67
2022/05/18 02:00:51;;;;;;;7.67;6.50;;;13.60;99.90;;;;;;5070006;28;20533;-67
2022/05/18 02:03:20;;;;;;;8.53;6.80;;;13.60;99.90;;;;;;5070128;28;20470;-67
2022/05/18 02:05:47;;;;;;;7.63;6.80;;;13.60;99.90;;;;;;5070512;28;20446;-66
2022/05/18 02:08:16;;;;;;;7.90;7.20;;;13.50;99.90;;;;;;5070384;28;20466;-67
2022/05/18 02:10:43;;;;;;;7.60;6.90;;;13.50;99.90;;;;;;5070058;28;20439;-66
2022/05/18 02:13:10;;;;;;;10.27;7.03;;;13.50;99.90;;;;;;5070325;28;20427;-67
2022/05/18 02:15:39;;;;;;;8.20;6.77;;;13.50;99.90;;;;;;5070056;28;20501;-68
2022/05/18 02:18:06;;;;;;;10.53;6.90;;;13.30;99.90;;;;;;5070445;28;20443;-68
2022/05/18 02:20:33;;;;;;;8.40;7.10;;;13.30;99.90;;;;;;5070100;28;20439;-67
2022/05/18 02:23:00;;;;;;;10.00;7.80;;;13.20;99.90;;;;;;5070210;28;20479;-67
2022/05/18 02:25:27;;;;;;;8.43;7.63;;;13.20;99.90;;;;;;5070185;28;20446;-67
2022/05/18 02:27:55;;;;;;;10.00;7.93;;;13.30;99.90;;;;;;5070014;28;20804;-67
2022/05/18 02:30:22;;;;;;;8.00;6.73;;;13.40;99.90;;;;;;5069627;28;20439;-66
2022/05/18 02:32:51;;;;;;;10.73;7.13;;;13.40;99.90;;;;;;5070229;28;20522;-67
2022/05/18 02:35:18;;;;;;;8.60;6.90;;;13.40;99.90;;;;;;5070060;28;21102;-67
2022/05/18 02:37:45;;;;;;;7.83;6.90;;;13.40;99.90;;;;;;5069990;28;20522;-67
2022/05/18 02:40:13;;;;;;;9.10;7.43;;;13.30;99.90;;;;;;5069557;28;20467;-66
2022/05/18 02:42:41;;;;;;;7.27;6.63;;;13.40;99.90;;;;;;5069724;28;20845;-67
2022/05/18 02:45:09;;;;;;;8.40;7.07;;;13.40;99.90;;;;;;5070028;28;20446;-67
2022/05/18 02:47:39;;;;;;;9.47;7.20;;;13.30;99.90;;;;;;5069897;28;20448;-67
2022/05/18 02:50:09;;;;;;;7.03;6.33;;;13.30;99.90;;;;;;5069457;28;20463;-68
2022/05/18 02:52:37;;;;;;;7.57;6.87;;;13.30;99.90;;;;;;5069735;28;20538;-67
2022/05/18 02:57:50;;;;;;;7.43;6.73;;;13.20;99.90;;;;;;5069757;28;20422;-67
2022/05/18 03:00:17;;;;;;;8.47;7.60;;;13.20;99.90;;;;;;5069516;28;20463;-66
2022/05/18 03:02:44;;;;;;;7.90;7.20;;;13.30;99.90;;;;;;5069556;28;20478;-67
2022/05/18 03:05:12;;;;;;;8.40;7.53;;;13.20;99.90;;;;;;5069822;28;20447;-67
2022/05/18 03:07:39;;;;;;;9.50;8.50;;;13.10;99.90;;;;;;5069625;28;20526;-66
2022/05/18 03:10:07;;;;;;;9.87;8.50;;;13.10;99.90;;;;;;5069124;28;20463;-67
2022/05/18 03:12:34;;;;;;;8.53;7.73;;;13.00;99.90;;;;;;5069709;28;20438;-67
2022/05/18 03:15:01;;;;;;;10.53;7.87;;;13.00;99.90;;;;;;5069721;28;20446;-67
2022/05/18 03:17:28;;;;;;;9.40;8.30;;;13.00;99.90;;;;;;5069612;28;20855;-67
2022/05/18 03:19:55;;;;;;;8.50;7.60;;;12.90;99.90;;;;;;5069004;28;20968;-66
2022/05/18 03:25:08;;;;;;;11.93;8.83;;;12.70;99.90;;;;;;5069554;28;20966;-66
2022/05/18 03:27:40;;;;;;;11.83;8.87;;;12.70;99.90;;;;;;5072681;28;20565;-66
2022/05/18 03:30:08;;;;;;;13.13;10.30;;;12.60;99.90;;;;;;5073009;28;20501;-67
2022/05/18 03:32:34;;;;;;;10.43;9.33;;;12.60;99.90;;;;;;5073163;28;20522;-67
2022/05/18 03:35:01;;;;;;;9.90;8.80;;;12.60;99.90;;;;;;5073005;28;20451;-66
2022/05/18 03:37:29;;;;;;;9.33;8.27;;;12.70;99.90;;;;;;5073396;28;20439;-67
2022/05/18 03:39:56;;;;;;;8.80;7.90;;;12.80;99.90;;;;;;5073067;28;20469;-67
2022/05/18 03:42:23;;;;;;;11.47;9.17;;;12.70;99.90;;;;;;5073384;28;20569;-67
2022/05/18 03:44:50;;;;;;;8.90;7.37;;;12.70;99.90;;;;;;5073971;28;20439;-68
2022/05/18 03:47:17;;;;;;;7.70;6.90;;;12.70;99.90;;;;;;5073249;28;20457;-66
2022/05/18 03:49:44;;;;;;;10.87;7.73;;;12.60;99.90;;;;;;5072925;28;20972;-66
2022/05/18 03:52:11;;;;;;;9.00;8.10;;;12.70;99.90;;;;;;5072771;28;20474;-66
2022/05/18 03:54:40;;;;;;;9.47;8.40;;;12.70;99.90;;;;;;5073067;28;20477;-66
2022/05/18 03:57:10;;;;;;;9.60;7.90;;;12.70;99.90;;;;;;5073019;28;20443;-67
2022/05/18 03:59:36;;;;;;;8.07;7.23;;;12.60;99.90;;;;;;5073016;28;20466;-67
2022/05/18 04:02:03;;;;;;;9.03;8.00;;;12.60;99.90;;;;;;5072320;28;20478;-67
2022/05/18 04:04:30;;;;;;;9.70;8.90;;;12.60;99.90;;;;;;5072533;28;20471;-67
2022/05/18 04:06:57;;;;;;;12.80;9.60;;;12.80;99.90;;;;;;5072821;28;20503;-69
2022/05/18 04:09:24;;;;;;;9.43;8.50;;;12.80;99.90;;;;;;5072283;28;20459;-69
2022/05/18 04:11:52;;;;;;;10.63;9.23;;;12.90;99.90;;;;;;5072363;28;20877;-67
2022/05/18 04:14:19;;;;;;;9.57;8.60;;;12.90;99.90;;;;;;5072347;28;20440;-68
2022/05/18 04:16:49;;;;;;;10.07;9.07;;;12.90;99.90;;;;;;5072689;28;20527;-68
2022/05/18 04:19:16;;;;;;;9.77;8.47;;;12.90;99.90;;;;;;5072436;28;20475;-69
2022/05/18 04:21:42;;;;;;;10.43;9.33;;;13.00;99.90;;;;;;5072172;28;20508;-68
2022/05/18 04:24:09;;;;;;;10.17;9.07;;;13.00;99.90;;;;;;5072179;28;20493;-68
2022/05/18 04:26:36;;;;;;;40.77;11.90;;;13.10;99.90;;;;;;5072492;28;20454;-69
2022/05/18 04:29:05;;;;;;;10.27;9.10;;;13.20;99.90;;;;;;5072261;28;20465;-68
2022/05/18 04:31:31;;;;;;;10.10;9.10;;;13.20;99.90;;;;;;5071944;28;20441;-68
2022/05/18 04:33:58;;;;;;;10.13;8.10;;;13.20;99.90;;;;;;5072160;28;20443;-68
2022/05/18 04:36:25;;;;;;;8.57;7.70;;;13.30;99.90;;;;;;5072261;28;20443;-71
2022/05/18 04:38:53;;;;;;;9.40;7.97;;;13.40;99.90;;;;;;5070822;28;20463;-71
2022/05/18 04:41:19;;;;;;;10.40;9.27;;;13.50;99.90;;;;;;5071619;28;20443;-69
2022/05/18 04:43:46;;;;;;;8.90;8.00;;;13.50;99.90;;;;;;5071932;28;20525;-69
2022/05/18 04:46:14;;;;;;;8.83;8.03;;;13.50;99.90;;;;;;5071910;28;20522;-68
2022/05/18 04:48:42;;;;;;;9.17;7.87;;;13.60;99.90;;;;;;5071700;28;20881;-69
2022/05/18 04:51:09;;;;;;;12.33;9.83;;;13.50;99.90;;;;;;5071387;28;20443;-72
2022/05/18 04:53:36;;;;;;;8.33;7.50;;;13.60;99.90;;;;;;5071931;28;20858;-68
2022/05/18 04:56:04;;;;;;;10.83;8.20;;;13.60;99.90;;;;;;5071875;28;20547;-69
2022/05/18 04:58:30;;;;;;;9.70;7.93;;;13.70;99.90;;;;;;5071647;28;20473;-69
2022/05/18 05:01:00;;;;;;;8.50;7.70;;;13.80;99.90;;;;;;5071212;28;21102;-69
2022/05/18 05:03:29;;;;;;;12.53;7.97;;;13.80;99.90;;;;;;5071163;28;20506;-70
2022/05/18 05:05:55;;;;;;;12.20;8.20;;;14.00;99.90;;;;;;5071222;28;20630;-69
2022/05/18 05:08:22;;;;;;;8.57;7.77;;;14.00;99.90;;;;;;5071021;28;20466;-69
2022/05/18 05:10:49;;;;;;;13.53;8.97;;;14.10;99.90;;;;;;5070791;28;20534;-69
2022/05/18 05:13:16;;;;;;;9.60;8.07;;;14.10;99.90;;;;;;5070848;28;20450;-69
2022/05/18 05:15:44;;;;;;;8.03;7.23;;;14.30;99.90;;;;;;5071235;28;20521;-69
2022/05/18 05:18:12;;;;;;;8.90;7.57;;;14.40;99.90;;;;;;5067734;28;20458;-69
2022/05/18 05:20:40;;;;;;;9.77;8.87;;;14.40;99.90;;;;;;5068461;28;20446;-69
2022/05/18 05:23:07;;;;;;;9.37;8.47;;;14.50;99.90;;;;;;5071463;28;20466;-69
2022/05/18 05:25:33;;;;;;;8.60;7.27;;;14.50;99.90;;;;;;5076978;28;20518;-68
2022/05/18 05:28:01;;;;;;;8.83;7.93;;;14.60;99.90;;;;;;5067198;28;20446;-67
2022/05/18 05:30:28;;;;;;;10.40;7.93;;;14.70;99.90;;;;;;5069786;28;20522;-67
2022/05/18 05:32:55;;;;;;;9.37;8.00;;;14.80;99.90;;;;;;5069575;28;20439;-67
2022/05/18 05:35:21;;;;;;;8.23;6.60;;;14.90;99.90;;;;;;5070434;28;20805;-67
2022/05/18 05:37:50;;;;;;;8.90;8.10;;;14.90;99.90;;;;;;5070586;28;20500;-67
2022/05/18 05:40:17;;;;;;;10.50;8.80;;;15.00;99.90;;;;;;5070231;28;20467;-66
2022/05/18 05:42:44;;;;;;;9.17;7.93;;;15.10;99.90;;;;;;5070809;28;21230;-66
2022/05/18 05:45:11;;;;;;;9.90;7.53;;;15.20;99.90;;;;;;5070478;28;20447;-69
2022/05/18 05:47:38;;;;;;;9.87;7.20;;;15.30;99.90;;;;;;5070915;28;20522;-66
2022/05/18 05:50:06;;;;;;;8.97;7.40;;;15.50;99.90;;;;;;5069308;28;20454;-66
2022/05/18 05:52:33;;;;;;;9.27;8.10;;;15.60;99.90;;;;;;5069728;28;20808;-65
2022/05/18 05:55:01;;;;;;;8.00;7.20;;;15.80;99.90;;;;;;5070322;28;20501;-66
2022/05/18 05:57:28;;;;;;;11.40;9.63;;;15.90;99.90;;;;;;5070460;28;20446;-66
2022/05/18 05:59:55;;;;;;;8.80;7.90;;;16.00;99.90;;;;;;5069726;28;20459;-67
2022/05/18 06:02:22;;;;;;;13.07;8.67;;;16.10;99.90;;;;;;5069964;28;20979;-66
2022/05/18 06:04:49;;;;;;;9.53;7.60;;;16.20;99.90;;;;;;5070132;28;20478;-66
2022/05/18 06:07:16;;;;;;;8.07;7.33;;;16.40;99.90;;;;;;5069925;28;20447;-66
2022/05/18 06:09:43;;;;;;;7.47;6.70;;;16.50;99.90;;;;;;5069984;28;20462;-66
2022/05/18 06:12:11;;;;;;;7.80;7.10;;;16.60;99.90;;;;;;5069888;28;20442;-66
2022/05/18 06:14:38;;;;;;;7.27;6.40;;;16.80;99.90;;;;;;5069911;28;20489;-66
2022/05/18 06:17:06;;;;;;;8.47;6.80;;;16.90;99.90;;;;;;5067519;28;20459;-66
2022/05/18 06:19:33;;;;;;;7.97;6.77;;;17.00;99.90;;;;;;5064644;28;20883;-66
2022/05/18 06:22:01;;;;;;;7.30;5.87;;;17.10;99.90;;;;;;5069961;28;20446;-66
2022/05/18 06:24:28;;;;;;;13.10;6.27;;;17.30;99.90;;;;;;5065093;28;20562;-66
2022/05/18 06:26:57;;;;;;;8.53;6.70;;;17.40;99.90;;;;;;5069638;28;20466;-66
2022/05/18 06:29:25;;;;;;;6.90;6.20;;;17.50;99.90;;;;;;5065320;28;20537;-66
2022/05/18 06:31:52;;;;;;;9.63;7.77;;;17.70;99.90;;;;;;5066423;28;20450;-66
2022/05/18 06:34:21;;;;;;;7.80;6.07;;;17.90;99.90;;;;;;5066269;28;20433;-66
2022/05/18 06:36:48;;;;;;;6.57;5.87;;;18.00;99.90;;;;;;5064207;28;20458;-66
2022/05/18 06:39:18;;;;;;;7.20;5.73;;;18.10;99.90;;;;;;5057849;28;20474;-65
2022/05/18 06:41:46;;;;;;;6.77;5.50;;;18.20;99.90;;;;;;5058090;28;20451;-65
2022/05/18 06:44:13;;;;;;;6.97;5.50;;;18.30;99.90;;;;;;5058736;28;20478;-67
2022/05/18 06:46:41;;;;;;;6.63;5.57;;;18.40;99.90;;;;;;5058098;28;20550;-67
2022/05/18 06:49:10;;;;;;;7.73;5.93;;;18.60;99.90;;;;;;5062430;28;20520;-67
2022/05/18 06:51:40;;;;;;;9.93;5.87;;;18.70;99.90;;;;;;5067715;28;20530;-67
2022/05/18 06:54:07;;;;;;;7.63;5.43;;;18.80;99.90;;;;;;5062038;28;20440;-67
2022/05/18 06:56:37;;;;;;;8.43;7.27;;;18.90;99.90;;;;;;5063916;28;20457;-67
2022/05/18 06:59:05;;;;;;;7.60;5.97;;;19.00;99.90;;;;;;5057472;28;20554;-67
2022/05/18 07:01:32;;;;;;;6.50;5.10;;;19.10;99.90;;;;;;5068325;28;20533;-67
2022/05/18 07:04:00;;;;;;;5.00;4.50;;;19.20;99.90;;;;;;5071497;28;20474;-67
2022/05/18 07:06:30;;;;;;;7.10;4.93;;;19.40;99.90;;;;;;5071669;28;20439;-67
2022/05/18 07:08:57;;;;;;;7.10;4.80;;;19.50;99.90;;;;;;5071870;28;20458;-67
2022/05/18 07:11:25;;;;;;;7.90;4.90;;;19.70;99.90;;;;;;5072422;28;20450;-67
2022/05/18 07:13:53;;;;;;;6.67;4.60;;;19.90;99.90;;;;;;5072338;28;20442;-67
2022/05/18 07:16:20;;;;;;;5.77;4.50;;;20.00;99.90;;;;;;5071515;28;20476;-67
2022/05/18 07:18:48;;;;;;;5.93;4.20;;;20.10;99.90;;;;;;5071565;28;20546;-67
2022/05/18 07:21:17;;;;;;;5.00;4.07;;;20.20;99.90;;;;;;5071038;28;20439;-67
2022/05/18 07:23:44;;;;;;;6.13;4.60;;;20.30;99.90;;;;;;5071348;28;20480;-67
2022/05/18 07:26:11;;;;;;;5.30;4.37;;;20.40;99.90;;;;;;5071414;28;20522;-67
2022/05/18 07:28:39;;;;;;;6.83;4.60;;;20.60;99.90;;;;;;5071157;28;20459;-67
2022/05/18 07:31:07;;;;;;;6.07;4.83;;;20.80;99.90;;;;;;5072522;28;20511;-67
2022/05/18 07:33:34;;;;;;;7.30;5.10;;;20.90;99.90;;;;;;5073203;28;20443;-68
2022/05/18 07:36:01;;;;;;;6.37;4.20;;;21.00;99.90;;;;;;5073083;28;20451;-67
2022/05/18 07:38:31;;;;;;;8.47;4.40;;;21.10;99.90;;;;;;5072794;28;20467;-67
2022/05/18 07:40:58;;;;;;;5.23;4.60;;;21.30;99.90;;;;;;5072755;28;20459;-67
2022/05/18 07:43:25;;;;;;;6.77;4.67;;;21.50;99.90;;;;;;5072776;28;20457;-68
2022/05/18 07:45:55;;;;;;;5.60;5.03;;;21.50;99.90;;;;;;5072764;28;20518;-67
2022/05/18 07:48:23;;;;;;;6.53;4.23;;;21.50;99.90;;;;;;5072878;28;20542;-67
2022/05/18 07:50:50;;;;;;;6.73;4.60;;;21.70;99.90;;;;;;5072604;28;20667;-67
2022/05/18 07:53:17;;;;;;;5.17;4.67;;;21.80;99.90;;;;;;5072613;28;20522;-67
2022/05/18 07:55:45;;;;;;;5.80;4.20;;;21.80;99.90;;;;;;5072799;28;20535;-67
2022/05/18 07:58:15;;;;;;;9.20;4.73;;;22.00;99.90;;;;;;5072524;28;20478;-67
2022/05/18 08:00:42;;;;;;;6.17;3.90;;;22.00;99.90;;;;;;5071996;28;21005;-67
2022/05/18 08:03:09;;;;;;;5.40;4.77;;;22.10;99.90;;;;;;5072570;28;20433;-68
2022/05/18 08:05:37;;;;;;;6.13;4.63;;;22.20;99.90;;;;;;5072342;28;21074;-66
2022/05/18 08:08:06;;;;;;;4.70;3.90;;;22.40;99.90;;;;;;5072535;28;20536;-68
2022/05/18 08:16:03;;;;;;;5.37;4.20;;;22.70;99.90;;;;;;5072305;28;20434;-67
2022/05/18 08:18:30;;;;;;;5.60;4.20;;;22.80;99.90;;;;;;5072338;28;20554;-68
2022/05/18 08:20:58;;;;;;;4.70;4.20;;;23.00;99.90;;;;;;5071870;28;20530;-67
2022/05/18 08:23:25;;;;;;;7.40;4.47;;;23.10;99.90;;;;;;5072251;28;20463;-67
2022/05/18 08:25:53;;;;;;;6.03;4.43;;;23.20;99.90;;;;;;5072131;28;20444;-68
2022/05/18 08:28:21;;;;;;;4.27;3.83;;;23.30;99.90;;;;;;5071907;28;21044;-68
2022/05/18 08:30:48;;;;;;;5.33;4.27;;;23.50;99.90;;;;;;5071724;28;20463;-67
2022/05/18 08:33:15;;;;;;;6.43;3.87;;;23.60;99.90;;;;;;5072104;28;20523;-67
2022/05/18 08:35:44;;;;;;;9.13;4.70;;;23.70;99.90;;;;;;5071888;28;20944;-67
2022/05/18 08:38:11;;;;;;;4.33;3.93;;;23.80;99.90;;;;;;5071635;28;20453;-68
2022/05/18 08:40:44;;;;;;;4.63;3.50;;;24.00;99.90;;;;;;5071716;28;20489;-67
2022/05/18 08:43:15;;;;;;;4.80;4.13;;;24.10;99.90;;;;;;5071748;28;20427;-67
2022/05/18 08:45:47;;;;;;;6.40;4.90;;;24.10;99.90;;;;;;5071822;28;20483;-68
2022/05/18 08:48:31;;;;;;;6.07;4.90;;;24.20;99.90;;;;;;5071539;28;20948;-68
2022/05/18 08:51:04;;;;;;;6.33;4.13;;;24.50;99.90;;;;;;5071922;28;20447;-68
2022/05/18 08:53:40;;;;;;;4.90;3.80;;;24.60;99.90;;;;;;5071696;28;20433;-68
2022/05/18 08:56:13;;;;;;;5.90;4.20;;;24.70;99.90;;;;;;5071867;28;20442;-67
2022/05/18 08:58:44;;;;;;;5.70;4.40;;;24.90;99.90;;;;;;5071798;28;20556;-67
2022/05/18 09:01:18;;;;;;;5.70;4.20;;;25.00;99.90;;;;;;5071349;28;20458;-67
2022/05/18 09:03:49;;;;;;;5.20;3.60;;;25.20;99.90;;;;;;5071854;28;20436;-67
2022/05/18 09:06:28;;;;;;;4.40;4.00;;;25.30;98.30;;;;;;5071743;28;20451;-67
2022/05/18 09:11:48;;;;;;;6.17;4.20;;;25.50;98.80;;;;;;5071648;28;20497;-67
2022/05/18 09:14:18;;;;;;;4.10;3.30;;;25.60;99.90;;;;;;5071544;28;20442;-67
2022/05/18 09:17:00;;;;;;;6.47;3.67;;;25.70;99.10;;;;;;5071346;28;20534;-67
2022/05/18 09:19:39;;;;;;;6.13;3.97;;;25.90;98.30;;;;;;5071080;28;20502;-67
2022/05/18 09:22:14;;;;;;;4.33;3.87;;;26.10;99.10;;;;;;5070935;28;20443;-67
2022/05/18 09:24:53;;;;;;;5.80;4.03;;;26.20;99.20;;;;;;5070526;28;20478;-67
2022/05/18 09:27:36;;;;;;;7.87;4.10;;;26.50;96.40;;;;;;5071113;28;20508;-67
2022/05/18 09:30:11;;;;;;;5.40;4.00;;;26.40;98.90;;;;;;5070681;28;20764;-68
2022/05/18 09:33:02;;;;;;;4.33;3.20;;;26.50;97.20;;;;;;5070880;28;20431;-68
2022/05/18 09:35:49;;;;;;;5.17;3.50;;;26.60;96.30;;;;;;5071072;28;20466;-67
2022/05/18 09:38:21;;;;;;;5.00;3.40;;;26.60;93.70;;;;;;5070709;28;20451;-68
2022/05/18 09:40:50;;;;;;;4.60;3.40;;;26.70;96.00;;;;;;5070432;28;20550;-68
2022/05/18 09:43:26;;;;;;;3.90;3.50;;;26.80;96.60;;;;;;5070490;28;21140;-68
2022/05/18 09:45:56;;;;;;;4.57;3.73;;;27.00;94.70;;;;;;5070375;28;20563;-68
2022/05/18 09:48:32;;;;;;;7.73;4.27;;;26.80;94.40;;;;;;5070629;28;20505;-67
2022/05/18 09:50:59;;;;;;;5.90;3.60;;;26.70;93.00;;;;;;5070203;28;20455;-68
2022/05/18 09:53:27;;;;;;;6.60;3.70;;;27.10;93.50;;;;;;5070443;28;20439;-68
2022/05/18 09:55:54;;;;;;;4.00;3.60;;;28.00;91.50;;;;;;5070569;28;20443;-68
2022/05/18 09:58:27;;;;;;;4.70;3.57;;;28.70;91.70;;;;;;5070643;28;20550;-68
2022/05/18 10:07:27;;;;;;;4.70;3.03;;;29.60;92.00;;;;;;5069759;28;20482;-68
2022/05/18 10:09:41;;;;;;;3.43;3.13;;;32.20;82.20;;;;;;5070497;28;20465;-68
2022/05/18 10:12:21;;;;;;;8.33;3.30;;;32.70;75.80;;;;;;5070278;28;20427;-68
2022/05/18 10:14:50;;;;;;;4.70;3.30;;;32.60;73.90;;;;;;5070278;28;20473;-68
2022/05/18 10:17:21;;;;;;;4.13;2.73;;;32.70;71.30;;;;;;5070147;28;20450;-68
2022/05/18 10:19:52;;;;;;;3.90;2.93;;;32.70;76.20;;;;;;5069865;28;20470;-69
2022/05/18 10:22:24;;;;;;;6.60;3.03;;;32.90;71.00;;;;;;5070004;28;20492;-68
2022/05/18 10:24:54;;;;;;;4.90;3.20;;;33.50;68.50;;;;;;5069910;28;20534;-69
2022/05/18 10:27:25;;;;;;;3.60;2.70;;;33.80;69.70;;;;;;5070059;28;20608;-68
2022/05/18 10:30:10;;;;;;;6.73;3.27;;;34.00;67.40;;;;;;5069820;28;20447;-68
2022/05/18 10:32:51;;;;;;;7.13;2.77;;;34.10;67.40;;;;;;5069783;28;20517;-68
2022/05/18 10:35:39;;;;;;;3.10;2.70;;;34.10;67.90;;;;;;5068970;28;20439;-69
2022/05/18 10:38:19;;;;;;;4.10;2.50;;;34.40;65.10;;;;;;5069726;28;21257;-68
2022/05/18 10:40:46;;;;;;;4.17;2.70;;;34.80;59.20;;;;;;5069330;28;20427;-68
2022/05/18 10:43:33;;;;;;;4.70;2.80;;;34.40;59.10;;;;;;5069767;28;20962;-67
2022/05/18 10:46:03;;;;;;;3.77;2.80;;;34.10;61.50;;;;;;5069838;28;20561;-68
2022/05/18 10:48:33;;;;;;;2.93;2.23;;;33.80;65.30;;;;;;5069775;28;20494;-69
2022/05/18 10:51:03;;;;;;;4.83;2.63;;;33.90;63.10;;;;;;5069212;28;20518;-69
2022/05/18 10:53:34;;;;;;;3.60;2.20;;;34.10;61.80;;;;;;5069608;28;20995;-68
2022/05/18 10:56:05;;;;;;;5.27;2.10;;;34.50;59.30;;;;;;5069977;28;20786;-69
2022/05/18 10:58:37;;;;;;;7.03;2.53;;;34.40;57.90;;;;;;5069746;28;20463;-68
2022/05/18 11:01:08;;;;;;;4.60;2.60;;;33.20;57.00;;;;;;5069294;28;20877;-69
2022/05/18 11:03:41;;;;;;;5.03;2.50;;;32.80;59.30;;;;;;5069590;28;21032;-68
2022/05/18 11:06:14;;;;;;;2.87;2.27;;;32.90;61.80;;;;;;5069400;28;20561;-69
2022/05/18 11:08:41;;;;;;;4.77;2.33;;;33.30;61.90;;;;;;5069749;28;20686;-68
2022/05/18 11:11:23;;;;;;;4.30;2.73;;;33.60;64.60;;;;;;5069423;28;20956;-69
2022/05/18 11:14:00;;;;;;;2.73;2.13;;;33.70;61.40;;;;;;5070035;28;20970;-69
2022/05/18 11:16:41;;;;;;;4.83;2.10;;;34.10;61.60;;;;;;5069464;28;20454;-68
2022/05/18 11:19:15;;;;;;;3.60;2.00;;;33.80;55.80;;;;;;5069371;28;20530;-69
2022/05/18 11:21:51;;;;;;;4.30;2.43;;;34.10;58.60;;;;;;5069047;28;20996;-69
2022/05/18 11:24:25;;;;;;;4.47;2.13;;;34.10;56.20;;;;;;5069578;28;20447;-69
2022/05/18 11:27:03;;;;;;;4.43;2.37;;;34.40;55.60;;;;;;5069374;28;20430;-68
2022/05/18 11:29:46;;;;;;;4.90;2.13;;;34.40;57.80;;;;;;5069310;28;20501;-68
2022/05/18 11:32:23;;;;;;;4.13;2.50;;;34.70;58.20;;;;;;5070206;28;20463;-68
2022/05/18 11:35:02;;;;;;;3.00;2.03;;;35.00;56.80;;;;;;5069857;28;20861;-69
2022/05/18 11:37:46;;;;;;;4.10;1.97;;;35.60;56.30;;;;;;5069608;28;20474;-68
2022/05/18 11:40:25;;;;;;;4.33;2.13;;;35.90;52.20;;;;;;5069536;28;20562;-68
2022/05/18 11:43:25;;;;;;;3.60;2.17;;;35.40;54.50;;;;;;5069409;28;21002;-68
2022/05/18 11:46:13;;;;;;;3.60;2.10;;;35.50;54.80;;;;;;5068950;28;20463;-67
2022/05/18 11:48:49;;;;;;;3.43;2.30;;;35.60;54.40;;;;;;5062383;28;20489;-69
2022/05/18 11:51:24;;;;;;;5.30;2.50;;;35.50;51.30;;;;;;5072912;28;20559;-68
2022/05/18 11:53:59;;;;;;;6.63;2.17;;;36.00;54.50;;;;;;5072870;28;20439;-69
2022/05/18 11:56:37;;;;;;;3.60;2.70;;;36.30;53.60;;;;;;5072330;28;20931;-69
2022/05/18 11:59:44;;;;;;;3.60;1.83;;;36.40;51.50;;;;;;5072678;28;20446;-68
2022/05/18 12:02:26;;;;;;;3.37;1.90;;;36.60;53.00;;;;;;5060907;28;20538;-68
2022/05/18 12:05:42;;;;;;;4.10;2.20;;;37.00;49.80;;;;;;5070842;28;20651;-67
2022/05/18 12:08:40;;;;;;;3.73;2.30;;;37.10;48.00;;;;;;4970154;28;20444;-67
2022/05/18 12:11:18;;;;;;;3.50;2.23;;;37.30;53.50;;;;;;5048301;28;20448;-67
2022/05/18 12:13:58;;;;;;;5.30;2.30;;;37.60;50.70;;;;;;5051656;28;21147;-69
2022/05/18 12:16:33;;;;;;;2.70;1.90;;;37.60;47.60;;;;;;5051244;28;20436;-69
2022/05/18 12:19:07;;;;;;;2.97;1.77;;;37.50;47.90;;;;;;5051554;28;20771;-68
2022/05/18 12:21:39;;;;;;;3.53;2.00;;;37.60;49.30;;;;;;5050853;28;20440;-68
2022/05/18 12:24:08;;;;;;;2.80;1.60;;;37.80;46.20;;;;;;5051890;28;20964;-69
2022/05/18 12:26:39;;;;;;;3.47;2.10;;;37.90;47.50;;;;;;5051985;28;20985;-69
2022/05/18 12:29:08;;;;;;;4.73;2.40;;;37.30;47.20;;;;;;5050442;28;20483;-69
2022/05/18 12:31:37;;;;;;;3.53;2.00;;;37.20;47.90;;;;;;5051526;28;20538;-69
2022/05/18 12:34:06;;;;;;;3.47;2.33;;;37.50;48.00;;;;;;5065910;28;20542;-68
2022/05/18 12:36:37;;;;;;;3.83;2.63;;;37.60;48.70;;;;;;5070727;28;20969;-69
2022/05/18 12:39:12;;;;;;;5.33;2.60;;;38.00;47.50;;;;;;5070748;28;20502;-69
2022/05/18 12:41:44;;;;;;;3.00;1.87;;;38.30;49.60;;;;;;5066240;28;20459;-69
2022/05/18 12:44:14;;;;;;;3.00;1.97;;;38.40;49.00;;;;;;5066998;28;20554;-68
2022/05/18 12:46:46;;;;;;;3.23;1.80;;;38.00;47.40;;;;;;5070274;28;21060;-68
2022/05/18 12:49:28;;;;;;;3.67;1.90;;;38.50;45.60;;;;;;5069744;28;20478;-69
2022/05/18 12:52:02;;;;;;;3.30;1.90;;;38.70;44.60;;;;;;5062375;28;20439;-68
2022/05/18 12:54:39;;;;;;;2.90;1.97;;;38.60;45.50;;;;;;5061142;28;21160;-68
2022/05/18 12:57:23;;;;;;;4.37;2.03;;;38.90;45.00;;;;;;5065387;28;21134;-67
2022/05/18 13:00:39;;;;;;;3.93;2.03;;;38.70;44.10;;;;;;5062979;28;20558;-67
2022/05/18 13:03:25;;;;;;;2.77;2.30;;;38.70;45.60;;;;;;5065847;28;20529;-67
2022/05/18 13:05:55;;;;;;;3.77;2.30;;;39.10;47.10;;;;;;5064569;28;20562;-67
2022/05/18 13:09:07;;;;;;;4.60;2.30;;;39.00;44.70;;;;;;5068369;28;20972;-62
2022/05/18 13:11:48;;;;;;;3.17;2.00;;;39.30;44.10;;;;;;5069703;28;20439;-66
2022/05/18 13:14:32;;;;;;;3.30;1.97;;;39.50;43.70;;;;;;5071089;28;20439;-66
2022/05/18 13:17:15;;;;;;;4.13;1.97;;;39.40;42.60;;;;;;5070248;28;20526;-66
2022/05/18 13:19:47;;;;;;;3.40;2.20;;;39.10;43.60;;;;;;5064918;28;20554;-68
2022/05/18 13:22:50;;;;;;;4.63;2.30;;;39.20;41.70;;;;;;5069307;28;20451;-65
2022/05/18 13:25:17;;;;;;;3.70;1.90;;;38.80;40.00;;;;;;5055895;28;20995;-67